sensor_id;sensor_type;location;lat;lon;timestamp;temperature;humidity
3792;DHT22;1911;53.768;11.474;2024-02-23T00:01:56;9.90;99.90
3792;DHT22;1911;53.768;11.474;2024-02-23T00:04:22;10.00;99.90
3792;DHT22;1911;53.768;11.474;2024-02-23T00:06:47;10.10;99.90
3792;DHT22;1911;53.768;11.474;2024-02-23T00:09:13;10.20;99.90
3792;DHT22;1911;53.768;11.474;2024-02-23T00:11:54;10.10;99.90
3792;DHT22;1911;53.768;11.474;2024-02-23T00:14:19;10.10;99.90
3792;DHT22;1911;53.768;11.474;2024-02-23T00:16:46;10.00;99.90
3792;DHT22;1911;53.768;11.474;2024-02-23T00:19:11;9.90;99.90
3792;DHT22;1911;53.768;11.474;2024-02-23T00:21:37;9.90;99.90
3792;DHT22;1911;53.768;11.474;2024-02-23T00:24:07;9.70;99.90
3792;DHT22;1911;53.768;11.474;2024-02-23T00:26:33;9.80;99.90
3792;DHT22;1911;53.768;11.474;2024-02-23T00:28:58;9.70;99.90
3792;DHT22;1911;53.768;11.474;2024-02-23T00:31:24;9.60;99.90
3792;DHT22;1911;53.768;11.474;2024-02-23T00:33:50;9.40;99.90
3792;DHT22;1911;53.768;11.474;2024-02-23T00:36:15;9.40;42.80
3792;DHT22;1911;53.768;11.474;2024-02-23T00:38:44;9.40;55.50
3792;DHT22;1911;53.768;11.474;2024-02-23T00:41:09;9.30;81.60
3792;DHT22;1911;53.768;11.474;2024-02-23T00:43:41;9.30;78.80
3792;DHT22;1911;53.768;11.474;2024-02-23T00:46:08;9.20;1.00
3792;DHT22;1911;53.768;11.474;2024-02-23T00:48:34;9.20;1.00
3792;DHT22;1911;53.768;11.474;2024-02-23T00:51:01;9.10;1.00
3792;DHT22;1911;53.768;11.474;2024-02-23T00:53:28;9.10;1.00
3792;DHT22;1911;53.768;11.474;2024-02-23T00:55:54;9.10;1.00
3792;DHT22;1911;53.768;11.474;2024-02-23T00:58:19;9.10;1.00
3792;DHT22;1911;53.768;11.474;2024-02-23T01:00:45;9.00;1.00
3792;DHT22;1911;53.768;11.474;2024-02-23T01:03:11;9.10;1.00
3792;DHT22;1911;53.768;11.474;2024-02-23T01:05:36;9.10;1.00
3792;DHT22;1911;53.768;11.474;2024-02-23T01:08:03;9.10;1.00
3792;DHT22;1911;53.768;11.474;2024-02-23T01:10:29;9.00;1.00
3792;DHT22;1911;53.768;11.474;2024-02-23T01:12:55;9.00;1.00
3792;DHT22;1911;53.768;11.474;2024-02-23T01:15:20;9.00;1.00
3792;DHT22;1911;53.768;11.474;2024-02-23T01:17:46;8.90;1.00
3792;DHT22;1911;53.768;11.474;2024-02-23T01:20:11;8.90;1.00
3792;DHT22;1911;53.768;11.474;2024-02-23T01:22:37;8.90;1.00
3792;DHT22;1911;53.768;11.474;2024-02-23T01:25:12;8.80;1.00
3792;DHT22;1911;53.768;11.474;2024-02-23T01:27:37;8.80;14.70
3792;DHT22;1911;53.768;11.474;2024-02-23T01:30:04;8.80;45.20
3792;DHT22;1911;53.768;11.474;2024-02-23T01:32:30;8.80;57.00
3792;DHT22;1911;53.768;11.474;2024-02-23T01:34:58;8.60;99.90
3792;DHT22;1911;53.768;11.474;2024-02-23T01:37:24;8.70;88.40
3792;DHT22;1911;53.768;11.474;2024-02-23T01:39:49;8.80;1.00
3792;DHT22;1911;53.768;11.474;2024-02-23T01:42:15;8.80;1.00
3792;DHT22;1911;53.768;11.474;2024-02-23T01:44:41;8.80;1.00
3792;DHT22;1911;53.768;11.474;2024-02-23T01:47:06;8.70;1.00
3792;DHT22;1911;53.768;11.474;2024-02-23T01:49:33;8.70;1.00
3792;DHT22;1911;53.768;11.474;2024-02-23T01:52:01;8.70;1.00
3792;DHT22;1911;53.768;11.474;2024-02-23T01:54:27;8.60;1.00
3792;DHT22;1911;53.768;11.474;2024-02-23T01:56:55;8.60;1.00
3792;DHT22;1911;53.768;11.474;2024-02-23T01:59:29;8.60;1.00
3792;DHT22;1911;53.768;11.474;2024-02-23T02:01:55;8.80;1.00
3792;DHT22;1911;53.768;11.474;2024-02-23T02:04:21;8.70;1.00
3792;DHT22;1911;53.768;11.474;2024-02-23T02:06:53;8.80;1.00
3792;DHT22;1911;53.768;11.474;2024-02-23T02:09:19;8.70;1.00
3792;DHT22;1911;53.768;11.474;2024-02-23T02:11:50;8.70;1.00
3792;DHT22;1911;53.768;11.474;2024-02-23T02:14:16;8.70;1.00
3792;DHT22;1911;53.768;11.474;2024-02-23T02:16:42;8.60;1.00
3792;DHT22;1911;53.768;11.474;2024-02-23T02:19:09;8.50;1.00
3792;DHT22;1911;53.768;11.474;2024-02-23T02:21:36;8.60;1.00
3792;DHT22;1911;53.768;11.474;2024-02-23T02:24:02;8.60;1.00
3792;DHT22;1911;53.768;11.474;2024-02-23T02:26:29;8.50;1.00
3792;DHT22;1911;53.768;11.474;2024-02-23T02:29:03;8.10;99.90
3792;DHT22;1911;53.768;11.474;2024-02-23T02:31:29;7.30;99.90
3792;DHT22;1911;53.768;11.474;2024-02-23T02:33:55;7.00;99.90
3792;DHT22;1911;53.768;11.474;2024-02-23T02:36:20;6.70;99.90
3792;DHT22;1911;53.768;11.474;2024-02-23T02:38:52;6.50;99.90
3792;DHT22;1911;53.768;11.474;2024-02-23T02:41:23;6.40;99.90
3792;DHT22;1911;53.768;11.474;2024-02-23T02:43:53;6.30;99.90
3792;DHT22;1911;53.768;11.474;2024-02-23T02:46:18;6.20;99.90
3792;DHT22;1911;53.768;11.474;2024-02-23T02:48:47;6.20;99.90
3792;DHT22;1911;53.768;11.474;2024-02-23T02:51:12;6.00;99.90
3792;DHT22;1911;53.768;11.474;2024-02-23T02:53:38;6.00;99.90
3792;DHT22;1911;53.768;11.474;2024-02-23T02:56:06;5.90;99.90
3792;DHT22;1911;53.768;11.474;2024-02-23T02:58:32;5.90;99.90
3792;DHT22;1911;53.768;11.474;2024-02-23T03:00:57;5.90;99.90
3792;DHT22;1911;53.768;11.474;2024-02-23T03:03:23;5.90;99.90
3792;DHT22;1911;53.768;11.474;2024-02-23T03:05:48;5.90;99.90
3792;DHT22;1911;53.768;11.474;2024-02-23T03:08:14;6.00;99.90
3792;DHT22;1911;53.768;11.474;2024-02-23T03:10:39;6.00;99.90
3792;DHT22;1911;53.768;11.474;2024-02-23T03:13:05;6.10;99.90
3792;DHT22;1911;53.768;11.474;2024-02-23T03:15:31;6.10;99.90
3792;DHT22;1911;53.768;11.474;2024-02-23T03:17:56;6.10;99.90
3792;DHT22;1911;53.768;11.474;2024-02-23T03:20:22;6.20;99.90
3792;DHT22;1911;53.768;11.474;2024-02-23T03:22:48;6.20;99.90
3792;DHT22;1911;53.768;11.474;2024-02-23T03:25:13;6.20;99.90
3792;DHT22;1911;53.768;11.474;2024-02-23T03:27:39;6.20;99.90
3792;DHT22;1911;53.768;11.474;2024-02-23T03:30:05;6.20;99.90
3792;DHT22;1911;53.768;11.474;2024-02-23T03:32:33;6.20;99.90
3792;DHT22;1911;53.768;11.474;2024-02-23T03:35:03;6.20;99.90
3792;DHT22;1911;53.768;11.474;2024-02-23T03:37:29;6.20;99.90
3792;DHT22;1911;53.768;11.474;2024-02-23T03:39:57;6.20;99.90
3792;DHT22;1911;53.768;11.474;2024-02-23T03:42:23;6.10;99.90
3792;DHT22;1911;53.768;11.474;2024-02-23T03:44:51;6.20;99.90
3792;DHT22;1911;53.768;11.474;2024-02-23T03:47:23;6.20;99.90
3792;DHT22;1911;53.768;11.474;2024-02-23T03:49:52;6.20;99.90
3792;DHT22;1911;53.768;11.474;2024-02-23T03:52:32;6.20;99.90
3792;DHT22;1911;53.768;11.474;2024-02-23T03:55:01;6.20;99.90
3792;DHT22;1911;53.768;11.474;2024-02-23T03:57:30;6.20;99.90
3792;DHT22;1911;53.768;11.474;2024-02-23T03:59:57;6.10;99.90
3792;DHT22;1911;53.768;11.474;2024-02-23T04:02:22;6.10;99.90
3792;DHT22;1911;53.768;11.474;2024-02-23T04:04:57;6.10;99.90
3792;DHT22;1911;53.768;11.474;2024-02-23T04:07:23;6.10;99.90
3792;DHT22;1911;53.768;11.474;2024-02-23T04:09:58;6.00;99.90
3792;DHT22;1911;53.768;11.474;2024-02-23T04:12:24;6.00;99.90
3792;DHT22;1911;53.768;11.474;2024-02-23T04:14:49;6.00;99.90
3792;DHT22;1911;53.768;11.474;2024-02-23T04:17:15;6.10;99.90
3792;DHT22;1911;53.768;11.474;2024-02-23T04:19:42;6.00;99.90
3792;DHT22;1911;53.768;11.474;2024-02-23T04:22:10;5.90;99.90
3792;DHT22;1911;53.768;11.474;2024-02-23T04:24:42;5.90;99.90
3792;DHT22;1911;53.768;11.474;2024-02-23T04:27:08;5.90;99.90
3792;DHT22;1911;53.768;11.474;2024-02-23T04:29:34;5.90;99.90
3792;DHT22;1911;53.768;11.474;2024-02-23T04:32:06;5.80;99.90
3792;DHT22;1911;53.768;11.474;2024-02-23T04:34:31;5.80;99.90
3792;DHT22;1911;53.768;11.474;2024-02-23T04:36:57;5.80;99.90
3792;DHT22;1911;53.768;11.474;2024-02-23T04:39:24;5.80;99.90
3792;DHT22;1911;53.768;11.474;2024-02-23T04:41:50;5.80;99.90
3792;DHT22;1911;53.768;11.474;2024-02-23T04:44:18;6.20;99.90
3792;DHT22;1911;53.768;11.474;2024-02-23T04:46:47;5.70;99.90
3792;DHT22;1911;53.768;11.474;2024-02-23T04:49:34;5.70;99.90
3792;DHT22;1911;53.768;11.474;2024-02-23T04:52:08;5.70;99.90
3792;DHT22;1911;53.768;11.474;2024-02-23T04:54:39;5.70;99.90
3792;DHT22;1911;53.768;11.474;2024-02-23T04:57:05;5.60;99.90
3792;DHT22;1911;53.768;11.474;2024-02-23T04:59:31;5.60;99.90
3792;DHT22;1911;53.768;11.474;2024-02-23T05:02:00;5.50;99.90
3792;DHT22;1911;53.768;11.474;2024-02-23T05:04:26;5.60;99.90
3792;DHT22;1911;53.768;11.474;2024-02-23T05:06:52;5.50;99.90
3792;DHT22;1911;53.768;11.474;2024-02-23T05:09:18;6.00;99.90
3792;DHT22;1911;53.768;11.474;2024-02-23T05:11:46;5.40;99.90
3792;DHT22;1911;53.768;11.474;2024-02-23T05:14:13;5.40;99.90
3792;DHT22;1911;53.768;11.474;2024-02-23T05:16:39;5.30;99.90
3792;DHT22;1911;53.768;11.474;2024-02-23T05:19:07;5.30;99.90
3792;DHT22;1911;53.768;11.474;2024-02-23T05:21:33;5.30;99.90
3792;DHT22;1911;53.768;11.474;2024-02-23T05:23:59;5.30;99.90
3792;DHT22;1911;53.768;11.474;2024-02-23T05:26:24;5.40;99.90
3792;DHT22;1911;53.768;11.474;2024-02-23T05:28:53;5.40;99.90
3792;DHT22;1911;53.768;11.474;2024-02-23T05:31:21;5.40;99.90
3792;DHT22;1911;53.768;11.474;2024-02-23T05:34:17;5.40;99.90
3792;DHT22;1911;53.768;11.474;2024-02-23T05:36:53;5.40;99.90
3792;DHT22;1911;53.768;11.474;2024-02-23T05:39:18;5.40;99.90
3792;DHT22;1911;53.768;11.474;2024-02-23T05:41:47;5.40;99.90
3792;DHT22;1911;53.768;11.474;2024-02-23T05:44:15;5.30;99.90
3792;DHT22;1911;53.768;11.474;2024-02-23T05:46:42;5.40;99.90
3792;DHT22;1911;53.768;11.474;2024-02-23T05:49:11;5.40;99.90
3792;DHT22;1911;53.768;11.474;2024-02-23T05:51:37;5.40;99.90
3792;DHT22;1911;53.768;11.474;2024-02-23T05:54:03;5.40;99.90
3792;DHT22;1911;53.768;11.474;2024-02-23T05:56:28;5.50;99.90
3792;DHT22;1911;53.768;11.474;2024-02-23T05:59:03;5.50;99.90
3792;DHT22;1911;53.768;11.474;2024-02-23T06:01:31;5.50;99.90
3792;DHT22;1911;53.768;11.474;2024-02-23T06:04:00;5.50;99.90
3792;DHT22;1911;53.768;11.474;2024-02-23T06:06:34;5.50;99.90
3792;DHT22;1911;53.768;11.474;2024-02-23T06:09:06;5.50;99.90
3792;DHT22;1911;53.768;11.474;2024-02-23T06:11:32;5.60;99.90
3792;DHT22;1911;53.768;11.474;2024-02-23T06:14:25;5.50;99.90
3792;DHT22;1911;53.768;11.474;2024-02-23T06:16:57;5.40;99.90
3792;DHT22;1911;53.768;11.474;2024-02-23T06:19:32;5.40;99.90
3792;DHT22;1911;53.768;11.474;2024-02-23T06:21:57;5.40;99.90
3792;DHT22;1911;53.768;11.474;2024-02-23T06:24:23;5.40;99.90
3792;DHT22;1911;53.768;11.474;2024-02-23T06:26:48;5.40;99.90
3792;DHT22;1911;53.768;11.474;2024-02-23T06:29:17;5.40;99.90
3792;DHT22;1911;53.768;11.474;2024-02-23T06:31:43;5.50;99.90
3792;DHT22;1911;53.768;11.474;2024-02-23T06:34:17;5.40;99.90
3792;DHT22;1911;53.768;11.474;2024-02-23T06:36:46;5.40;99.90
3792;DHT22;1911;53.768;11.474;2024-02-23T06:39:11;5.40;99.90
3792;DHT22;1911;53.768;11.474;2024-02-23T06:41:57;5.40;99.90
3792;DHT22;1911;53.768;11.474;2024-02-23T06:47:47;5.40;99.90
3792;DHT22;1911;53.768;11.474;2024-02-23T06:50:13;5.50;99.90
3792;DHT22;1911;53.768;11.474;2024-02-23T06:52:42;5.40;99.90
3792;DHT22;1911;53.768;11.474;2024-02-23T06:55:14;5.40;99.90
3792;DHT22;1911;53.768;11.474;2024-02-23T06:57:42;5.40;99.90
3792;DHT22;1911;53.768;11.474;2024-02-23T07:00:12;5.40;99.90
3792;DHT22;1911;53.768;11.474;2024-02-23T07:02:47;5.50;99.90
3792;DHT22;1911;53.768;11.474;2024-02-23T07:05:13;5.50;99.90
3792;DHT22;1911;53.768;11.474;2024-02-23T07:07:42;5.50;99.90
3792;DHT22;1911;53.768;11.474;2024-02-23T07:10:08;5.40;99.90
3792;DHT22;1911;53.768;11.474;2024-02-23T07:12:37;5.50;99.90
3792;DHT22;1911;53.768;11.474;2024-02-23T07:15:03;5.50;99.90
3792;DHT22;1911;53.768;11.474;2024-02-23T07:17:29;5.40;99.90
3792;DHT22;1911;53.768;11.474;2024-02-23T07:20:04;5.40;99.90
3792;DHT22;1911;53.768;11.474;2024-02-23T07:22:32;5.40;99.90
3792;DHT22;1911;53.768;11.474;2024-02-23T07:25:05;5.60;99.90
3792;DHT22;1911;53.768;11.474;2024-02-23T07:27:43;5.60;99.90
3792;DHT22;1911;53.768;11.474;2024-02-23T07:30:15;5.80;99.90
3792;DHT22;1911;53.768;11.474;2024-02-23T07:33:03;6.20;99.90
3792;DHT22;1911;53.768;11.474;2024-02-23T07:38:34;6.60;99.90
3792;DHT22;1911;53.768;11.474;2024-02-23T07:41:00;6.50;99.90
3792;DHT22;1911;53.768;11.474;2024-02-23T07:43:25;6.40;99.90
3792;DHT22;1911;53.768;11.474;2024-02-23T07:45:56;6.20;99.90
3792;DHT22;1911;53.768;11.474;2024-02-23T07:48:22;6.60;99.90
3792;DHT22;1911;53.768;11.474;2024-02-23T07:50:53;6.90;38.30
3792;DHT22;1911;53.768;11.474;2024-02-23T07:53:20;6.70;25.50
3792;DHT22;1911;53.768;11.474;2024-02-23T07:55:48;6.50;94.70
3792;DHT22;1911;53.768;11.474;2024-02-23T07:58:14;6.20;99.90
3792;DHT22;1911;53.768;11.474;2024-02-23T08:00:46;6.20;99.90
3792;DHT22;1911;53.768;11.474;2024-02-23T08:03:21;6.30;99.90
3792;DHT22;1911;53.768;11.474;2024-02-23T08:05:46;6.10;99.90
3792;DHT22;1911;53.768;11.474;2024-02-23T08:08:12;6.20;99.90
3792;DHT22;1911;53.768;11.474;2024-02-23T08:10:41;6.40;99.90
3792;DHT22;1911;53.768;11.474;2024-02-23T08:13:06;6.90;21.90
3792;DHT22;1911;53.768;11.474;2024-02-23T08:15:32;6.50;13.60
3792;DHT22;1911;53.768;11.474;2024-02-23T08:17:57;6.60;1.00
3792;DHT22;1911;53.768;11.474;2024-02-23T08:20:23;6.50;96.90
3792;DHT22;1911;53.768;11.474;2024-02-23T08:22:49;6.30;99.90
3792;DHT22;1911;53.768;11.474;2024-02-23T08:25:14;6.20;99.90
3792;DHT22;1911;53.768;11.474;2024-02-23T08:27:49;6.30;99.90
3792;DHT22;1911;53.768;11.474;2024-02-23T08:30:15;6.50;99.90
3792;DHT22;1911;53.768;11.474;2024-02-23T08:32:41;6.70;99.90
3792;DHT22;1911;53.768;11.474;2024-02-23T08:35:06;6.60;67.10
3792;DHT22;1911;53.768;11.474;2024-02-23T08:37:32;6.50;18.20
3792;DHT22;1911;53.768;11.474;2024-02-23T08:39:58;6.40;27.50
3792;DHT22;1911;53.768;11.474;2024-02-23T08:42:26;6.40;52.20
3792;DHT22;1911;53.768;11.474;2024-02-23T08:44:52;6.70;1.00
3792;DHT22;1911;53.768;11.474;2024-02-23T08:47:19;6.70;9.60
3792;DHT22;1911;53.768;11.474;2024-02-23T08:49:45;6.80;1.00
3792;DHT22;1911;53.768;11.474;2024-02-23T08:52:11;6.70;1.00
3792;DHT22;1911;53.768;11.474;2024-02-23T08:54:36;6.80;9.30
3792;DHT22;1911;53.768;11.474;2024-02-23T08:57:03;6.80;1.00
3792;DHT22;1911;53.768;11.474;2024-02-23T08:59:35;6.90;1.00
3792;DHT22;1911;53.768;11.474;2024-02-23T09:02:01;6.70;1.00
3792;DHT22;1911;53.768;11.474;2024-02-23T09:04:26;6.70;1.00
3792;DHT22;1911;53.768;11.474;2024-02-23T09:06:52;6.60;1.00
3792;DHT22;1911;53.768;11.474;2024-02-23T09:09:19;6.60;1.00
3792;DHT22;1911;53.768;11.474;2024-02-23T09:11:44;6.70;1.00
3792;DHT22;1911;53.768;11.474;2024-02-23T09:14:10;6.80;1.00
3792;DHT22;1911;53.768;11.474;2024-02-23T09:16:35;6.90;1.00
3792;DHT22;1911;53.768;11.474;2024-02-23T09:19:01;7.00;1.00
3792;DHT22;1911;53.768;11.474;2024-02-23T09:21:27;7.10;1.00
3792;DHT22;1911;53.768;11.474;2024-02-23T09:23:52;6.80;1.00
3792;DHT22;1911;53.768;11.474;2024-02-23T09:26:18;6.70;1.00
3792;DHT22;1911;53.768;11.474;2024-02-23T09:28:43;6.70;1.00
3792;DHT22;1911;53.768;11.474;2024-02-23T09:31:10;6.90;1.00
3792;DHT22;1911;53.768;11.474;2024-02-23T09:33:36;6.90;1.00
3792;DHT22;1911;53.768;11.474;2024-02-23T09:36:02;7.00;1.00
3792;DHT22;1911;53.768;11.474;2024-02-23T09:38:28;6.90;1.00
3792;DHT22;1911;53.768;11.474;2024-02-23T09:40:56;6.90;1.00
3792;DHT22;1911;53.768;11.474;2024-02-23T09:43:22;6.90;1.00
3792;DHT22;1911;53.768;11.474;2024-02-23T09:45:51;6.90;1.00
3792;DHT22;1911;53.768;11.474;2024-02-23T09:48:19;7.10;1.00
3792;DHT22;1911;53.768;11.474;2024-02-23T09:50:47;7.20;1.00
3792;DHT22;1911;53.768;11.474;2024-02-23T09:53:13;7.20;1.00
3792;DHT22;1911;53.768;11.474;2024-02-23T09:55:39;7.10;1.00
3792;DHT22;1911;53.768;11.474;2024-02-23T09:58:10;7.20;1.00
3792;DHT22;1911;53.768;11.474;2024-02-23T10:00:38;7.10;1.00
3792;DHT22;1911;53.768;11.474;2024-02-23T10:03:10;7.00;1.00
3792;DHT22;1911;53.768;11.474;2024-02-23T10:05:35;7.10;1.00
3792;DHT22;1911;53.768;11.474;2024-02-23T10:08:01;7.10;1.00
3792;DHT22;1911;53.768;11.474;2024-02-23T10:10:34;7.20;1.00
3792;DHT22;1911;53.768;11.474;2024-02-23T10:13:03;7.30;1.00
3792;DHT22;1911;53.768;11.474;2024-02-23T10:15:34;7.30;1.00
3792;DHT22;1911;53.768;11.474;2024-02-23T10:18:00;7.40;1.00
3792;DHT22;1911;53.768;11.474;2024-02-23T10:20:26;7.40;1.00
3792;DHT22;1911;53.768;11.474;2024-02-23T10:22:52;7.30;1.00
3792;DHT22;1911;53.768;11.474;2024-02-23T10:25:19;7.40;1.00
3792;DHT22;1911;53.768;11.474;2024-02-23T10:27:44;7.50;1.00
3792;DHT22;1911;53.768;11.474;2024-02-23T10:30:10;7.50;1.00
3792;DHT22;1911;53.768;11.474;2024-02-23T10:32:41;7.50;1.00
3792;DHT22;1911;53.768;11.474;2024-02-23T10:35:16;7.50;1.00
3792;DHT22;1911;53.768;11.474;2024-02-23T10:37:43;7.50;1.00
3792;DHT22;1911;53.768;11.474;2024-02-23T10:40:17;7.60;1.00
3792;DHT22;1911;53.768;11.474;2024-02-23T10:42:46;7.60;1.00
3792;DHT22;1911;53.768;11.474;2024-02-23T10:45:18;7.80;1.00
3792;DHT22;1911;53.768;11.474;2024-02-23T10:47:44;7.80;1.00
3792;DHT22;1911;53.768;11.474;2024-02-23T10:50:14;7.70;1.00
3792;DHT22;1911;53.768;11.474;2024-02-23T10:52:42;7.70;1.00
3792;DHT22;1911;53.768;11.474;2024-02-23T10:55:11;7.70;1.00
3792;DHT22;1911;53.768;11.474;2024-02-23T10:57:37;7.60;1.00
3792;DHT22;1911;53.768;11.474;2024-02-23T11:00:04;7.70;1.00
3792;DHT22;1911;53.768;11.474;2024-02-23T11:02:40;7.70;1.00
3792;DHT22;1911;53.768;11.474;2024-02-23T11:05:07;7.80;1.00
3792;DHT22;1911;53.768;11.474;2024-02-23T11:07:41;7.80;99.90
3792;DHT22;1911;53.768;11.474;2024-02-23T11:10:08;7.70;99.90
3792;DHT22;1911;53.768;11.474;2024-02-23T11:13:07;8.00;1.00
3792;DHT22;1911;53.768;11.474;2024-02-23T11:15:41;8.20;1.00
3792;DHT22;1911;53.768;11.474;2024-02-23T11:18:29;8.00;1.00
3792;DHT22;1911;53.768;11.474;2024-02-23T11:21:03;8.00;99.90
3792;DHT22;1911;53.768;11.474;2024-02-23T11:23:48;8.00;1.00
3792;DHT22;1911;53.768;11.474;2024-02-23T11:26:17;8.00;1.00
3792;DHT22;1911;53.768;11.474;2024-02-23T11:28:47;8.10;99.90
3792;DHT22;1911;53.768;11.474;2024-02-23T11:31:14;8.50;99.90
3792;DHT22;1911;53.768;11.474;2024-02-23T11:33:40;8.40;1.00
3792;DHT22;1911;53.768;11.474;2024-02-23T11:36:11;8.50;1.00
3792;DHT22;1911;53.768;11.474;2024-02-23T11:38:39;8.40;1.00
3792;DHT22;1911;53.768;11.474;2024-02-23T11:41:04;8.40;99.90
3792;DHT22;1911;53.768;11.474;2024-02-23T11:43:33;8.50;1.00
3792;DHT22;1911;53.768;11.474;2024-02-23T11:46:00;8.60;99.90
3792;DHT22;1911;53.768;11.474;2024-02-23T11:48:26;8.70;99.90
3792;DHT22;1911;53.768;11.474;2024-02-23T11:51:04;8.80;99.90
3792;DHT22;1911;53.768;11.474;2024-02-23T11:53:29;8.90;1.00
3792;DHT22;1911;53.768;11.474;2024-02-23T11:56:01;8.90;99.90
3792;DHT22;1911;53.768;11.474;2024-02-23T11:58:27;8.80;1.00
3792;DHT22;1911;53.768;11.474;2024-02-23T12:00:53;8.80;1.00
3792;DHT22;1911;53.768;11.474;2024-02-23T12:03:18;8.80;1.00
3792;DHT22;1911;53.768;11.474;2024-02-23T12:05:44;8.90;1.00
3792;DHT22;1911;53.768;11.474;2024-02-23T12:08:10;8.80;1.00
3792;DHT22;1911;53.768;11.474;2024-02-23T12:10:35;8.90;1.00
3792;DHT22;1911;53.768;11.474;2024-02-23T12:13:02;8.70;1.00
3792;DHT22;1911;53.768;11.474;2024-02-23T12:15:28;8.40;1.00
3792;DHT22;1911;53.768;11.474;2024-02-23T12:17:58;8.50;1.00
3792;DHT22;1911;53.768;11.474;2024-02-23T12:20:24;8.50;1.00
3792;DHT22;1911;53.768;11.474;2024-02-23T12:22:49;8.40;99.90
3792;DHT22;1911;53.768;11.474;2024-02-23T12:25:18;8.30;1.00
3792;DHT22;1911;53.768;11.474;2024-02-23T12:27:44;8.40;1.00
3792;DHT22;1911;53.768;11.474;2024-02-23T12:30:15;8.30;1.00
3792;DHT22;1911;53.768;11.474;2024-02-23T12:33:20;8.20;99.90
3792;DHT22;1911;53.768;11.474;2024-02-23T12:35:45;8.30;99.90
3792;DHT22;1911;53.768;11.474;2024-02-23T12:38:11;7.80;99.90
3792;DHT22;1911;53.768;11.474;2024-02-23T12:40:40;8.40;1.00
3792;DHT22;1911;53.768;11.474;2024-02-23T12:43:05;8.40;1.00
3792;DHT22;1911;53.768;11.474;2024-02-23T12:45:40;8.60;1.00
3792;DHT22;1911;53.768;11.474;2024-02-23T12:48:06;8.60;1.00
3792;DHT22;1911;53.768;11.474;2024-02-23T12:50:31;8.50;1.00
3792;DHT22;1911;53.768;11.474;2024-02-23T12:52:57;8.40;1.00
3792;DHT22;1911;53.768;11.474;2024-02-23T12:55:23;8.40;99.90
3792;DHT22;1911;53.768;11.474;2024-02-23T12:57:52;8.40;1.00
3792;DHT22;1911;53.768;11.474;2024-02-23T13:00:17;8.50;99.90
3792;DHT22;1911;53.768;11.474;2024-02-23T13:02:43;8.40;99.90
3792;DHT22;1911;53.768;11.474;2024-02-23T13:05:09;8.40;99.90
3792;DHT22;1911;53.768;11.474;2024-02-23T13:07:34;8.40;99.90
3792;DHT22;1911;53.768;11.474;2024-02-23T13:10:00;8.50;99.90
3792;DHT22;1911;53.768;11.474;2024-02-23T13:12:25;8.60;99.90
3792;DHT22;1911;53.768;11.474;2024-02-23T13:14:51;8.70;99.90
3792;DHT22;1911;53.768;11.474;2024-02-23T13:17:20;8.70;99.90
3792;DHT22;1911;53.768;11.474;2024-02-23T13:19:46;8.60;99.90
3792;DHT22;1911;53.768;11.474;2024-02-23T13:22:11;8.50;99.90
3792;DHT22;1911;53.768;11.474;2024-02-23T13:24:49;8.40;2.60
3792;DHT22;1911;53.768;11.474;2024-02-23T13:31:05;8.30;1.00
3792;DHT22;1911;53.768;11.474;2024-02-23T13:33:55;8.30;99.90
3792;DHT22;1911;53.768;11.474;2024-02-23T13:36:21;8.30;99.90
3792;DHT22;1911;53.768;11.474;2024-02-23T13:39:20;8.70;99.90
3792;DHT22;1911;53.768;11.474;2024-02-23T14:07:52;8.10;99.90
3792;DHT22;1911;53.768;11.474;2024-02-23T14:12:56;8.10;99.90
3792;DHT22;1911;53.768;11.474;2024-02-23T14:15:22;8.00;99.90
3792;DHT22;1911;53.768;11.474;2024-02-23T14:17:47;8.00;99.90
3792;DHT22;1911;53.768;11.474;2024-02-23T14:20:14;8.10;1.00
3792;DHT22;1911;53.768;11.474;2024-02-23T14:22:40;8.30;1.00
3792;DHT22;1911;53.768;11.474;2024-02-23T14:25:05;8.30;1.00
3792;DHT22;1911;53.768;11.474;2024-02-23T14:27:31;8.30;99.90
3792;DHT22;1911;53.768;11.474;2024-02-23T14:29:57;8.20;99.90
3792;DHT22;1911;53.768;11.474;2024-02-23T14:32:22;8.30;1.00
3792;DHT22;1911;53.768;11.474;2024-02-23T14:34:48;8.30;99.90
3792;DHT22;1911;53.768;11.474;2024-02-23T14:37:15;8.30;99.90
3792;DHT22;1911;53.768;11.474;2024-02-23T14:39:40;8.30;99.90
3792;DHT22;1911;53.768;11.474;2024-02-23T14:42:06;8.20;1.00
3792;DHT22;1911;53.768;11.474;2024-02-23T14:44:34;8.20;1.00
3792;DHT22;1911;53.768;11.474;2024-02-23T14:47:00;8.20;99.90
3792;DHT22;1911;53.768;11.474;2024-02-23T14:49:26;8.20;1.00
3792;DHT22;1911;53.768;11.474;2024-02-23T14:51:51;8.10;12.70
3792;DHT22;1911;53.768;11.474;2024-02-23T14:54:17;8.20;1.00
3792;DHT22;1911;53.768;11.474;2024-02-23T14:56:42;8.20;99.90
3792;DHT22;1911;53.768;11.474;2024-02-23T14:59:08;8.20;1.00
3792;DHT22;1911;53.768;11.474;2024-02-23T15:01:37;8.20;99.90
3792;DHT22;1911;53.768;11.474;2024-02-23T15:04:07;8.30;1.00
3792;DHT22;1911;53.768;11.474;2024-02-23T15:06:33;8.30;71.40
3792;DHT22;1911;53.768;11.474;2024-02-23T15:08:58;8.30;1.00
3792;DHT22;1911;53.768;11.474;2024-02-23T15:11:24;8.30;28.50
3792;DHT22;1911;53.768;11.474;2024-02-23T15:13:50;8.10;99.90
3792;DHT22;1911;53.768;11.474;2024-02-23T15:16:17;8.20;1.00
3792;DHT22;1911;53.768;11.474;2024-02-23T15:18:42;8.20;99.90
3792;DHT22;1911;53.768;11.474;2024-02-23T15:21:08;8.10;99.90
3792;DHT22;1911;53.768;11.474;2024-02-23T15:23:34;8.00;99.90
3792;DHT22;1911;53.768;11.474;2024-02-23T15:25:59;8.00;99.90
3792;DHT22;1911;53.768;11.474;2024-02-23T15:28:25;8.10;99.90
3792;DHT22;1911;53.768;11.474;2024-02-23T15:30:51;8.10;1.00
3792;DHT22;1911;53.768;11.474;2024-02-23T15:33:17;8.00;1.00
3792;DHT22;1911;53.768;11.474;2024-02-23T15:35:42;8.00;1.00
3792;DHT22;1911;53.768;11.474;2024-02-23T15:38:08;8.00;1.00
3792;DHT22;1911;53.768;11.474;2024-02-23T15:40:34;8.00;99.90
3792;DHT22;1911;53.768;11.474;2024-02-23T15:42:59;8.00;55.80
3792;DHT22;1911;53.768;11.474;2024-02-23T15:45:25;8.00;22.90
3792;DHT22;1911;53.768;11.474;2024-02-23T15:47:50;8.00;1.00
3792;DHT22;1911;53.768;11.474;2024-02-23T15:50:19;7.90;1.00
3792;DHT22;1911;53.768;11.474;2024-02-23T15:52:50;8.00;1.00
3792;DHT22;1911;53.768;11.474;2024-02-23T15:55:16;7.90;1.00
3792;DHT22;1911;53.768;11.474;2024-02-23T15:58:01;7.90;1.00
3792;DHT22;1911;53.768;11.474;2024-02-23T16:00:29;8.00;1.00
3792;DHT22;1911;53.768;11.474;2024-02-23T16:02:54;7.90;1.00
3792;DHT22;1911;53.768;11.474;2024-02-23T16:05:20;7.90;1.00
3792;DHT22;1911;53.768;11.474;2024-02-23T16:07:46;7.90;1.00
3792;DHT22;1911;53.768;11.474;2024-02-23T16:10:14;7.90;1.00
3792;DHT22;1911;53.768;11.474;2024-02-23T16:12:40;7.90;1.00
3792;DHT22;1911;53.768;11.474;2024-02-23T16:15:06;7.90;1.00
3792;DHT22;1911;53.768;11.474;2024-02-23T16:17:34;7.80;1.00
3792;DHT22;1911;53.768;11.474;2024-02-23T16:19:59;7.80;78.50
3792;DHT22;1911;53.768;11.474;2024-02-23T16:22:25;7.80;1.00
3792;DHT22;1911;53.768;11.474;2024-02-23T16:24:51;7.80;1.00
3792;DHT22;1911;53.768;11.474;2024-02-23T16:27:17;7.80;1.00
3792;DHT22;1911;53.768;11.474;2024-02-23T16:29:42;7.80;48.30
3792;DHT22;1911;53.768;11.474;2024-02-23T16:32:08;7.80;1.00
3792;DHT22;1911;53.768;11.474;2024-02-23T16:34:33;7.80;1.00
3792;DHT22;1911;53.768;11.474;2024-02-23T16:36:59;7.80;99.90
3792;DHT22;1911;53.768;11.474;2024-02-23T16:39:25;7.90;1.00
3792;DHT22;1911;53.768;11.474;2024-02-23T16:41:51;7.80;1.00
3792;DHT22;1911;53.768;11.474;2024-02-23T16:44:16;7.80;1.00
3792;DHT22;1911;53.768;11.474;2024-02-23T16:46:48;7.70;1.00
3792;DHT22;1911;53.768;11.474;2024-02-23T16:49:13;7.70;1.00
3792;DHT22;1911;53.768;11.474;2024-02-23T16:51:39;7.70;1.00